Cherry Creek, Idaho
Current Conditions -  °F | °C
As of 12:51 PM on Friday 31 Oct 2014 (Local Time) from KLGU Reporting Station
Clear Clear  
Wind Chill: 69°   Ceiling: Unl
Heat Index: 69°   Visibility: 10mi
Dew Point: 28°   Wind: 7mph
Humidity: 22%   Direction: 200°SSW
Pressure: 29.95"   Gusts: NA
Location:  42.2285°N, 112.313°W
Report Text: KLGU 311851Z AUTO 20006KT 10SM CLR 21/M02 A2995 RMK AO2 SLP114 T02061022 TSNO
Loading
Personal Weather Stations






























Interactive Weather Map
Tropical Storm Tracking
New forecast layout! Learn more

10-Day Weather Forecast

Advertisements
Track Severe Weather on mobile